createdAt,value
2018-12-12T00:01:23.340Z,48.80
2018-12-12T00:03:52.347Z,48.60
2018-12-12T00:06:21.809Z,48.50
2018-12-12T00:08:51.000Z,48.50
2018-12-12T00:11:20.050Z,48.20
2018-12-12T00:13:49.166Z,48.20
2018-12-12T00:16:18.041Z,48.80
2018-12-12T00:18:46.646Z,49.00
2018-12-12T00:21:15.249Z,48.80
2018-12-12T00:23:44.328Z,48.80
2018-12-12T00:26:12.965Z,49.00
2018-12-12T00:28:41.583Z,49.20
2018-12-12T00:31:10.182Z,49.20
2018-12-12T00:33:38.805Z,49.10
2018-12-12T00:36:07.432Z,49.10
2018-12-12T00:38:36.212Z,49.20
2018-12-12T00:41:04.874Z,49.10
2018-12-12T00:43:33.455Z,49.20
2018-12-12T00:46:02.090Z,48.90
2018-12-12T00:48:30.742Z,49.00
2018-12-12T00:50:59.347Z,48.20
2018-12-12T00:53:27.962Z,48.90
2018-12-12T00:55:56.673Z,48.90
2018-12-12T00:58:25.269Z,48.80
2018-12-12T01:00:53.906Z,48.90
2018-12-12T01:03:22.517Z,48.80
2018-12-12T01:05:51.189Z,48.80
2018-12-12T01:08:19.823Z,48.80
2018-12-12T01:10:51.031Z,48.80
2018-12-12T01:13:19.701Z,48.70
2018-12-12T01:15:48.326Z,48.70
2018-12-12T01:18:17.007Z,48.70
2018-12-12T01:20:45.650Z,48.30
2018-12-12T01:23:14.259Z,48.30
2018-12-12T01:25:42.862Z,48.40
2018-12-12T01:28:11.530Z,48.20
2018-12-12T01:30:40.141Z,48.60
2018-12-12T01:33:08.786Z,48.70
2018-12-12T01:35:37.394Z,48.30
2018-12-12T01:38:06.007Z,48.70
2018-12-12T01:40:34.646Z,48.40
2018-12-12T01:43:03.326Z,49.00
2018-12-12T01:45:32.465Z,49.10
2018-12-12T01:48:01.709Z,49.20
2018-12-12T01:50:30.385Z,49.10
2018-12-12T01:52:58.988Z,49.20
2018-12-12T01:55:27.574Z,49.20
2018-12-12T01:57:56.266Z,49.30
2018-12-12T02:00:24.901Z,49.30
2018-12-12T02:02:58.201Z,49.30
2018-12-12T02:05:27.148Z,49.30
2018-12-12T02:07:55.833Z,49.20
2018-12-12T02:10:24.563Z,49.40
2018-12-12T02:13:04.344Z,49.40
2018-12-12T02:15:32.945Z,49.30
2018-12-12T02:18:01.537Z,49.30
2018-12-12T02:20:30.174Z,49.20
2018-12-12T02:22:58.809Z,49.20
2018-12-12T02:25:27.432Z,49.10
2018-12-12T02:27:56.127Z,49.20
2018-12-12T02:30:24.816Z,49.00
2018-12-12T02:32:53.417Z,49.00
2018-12-12T02:35:22.034Z,49.00
2018-12-12T02:37:50.685Z,49.00
2018-12-12T02:40:19.293Z,48.90
2018-12-12T02:42:47.927Z,48.90
2018-12-12T02:45:16.598Z,48.90
2018-12-12T02:47:45.197Z,48.90
2018-12-12T02:50:13.833Z,48.70
2018-12-12T02:52:42.463Z,49.00
2018-12-12T02:55:11.186Z,49.00
2018-12-12T02:57:39.792Z,48.70
2018-12-12T03:00:09.840Z,48.70
2018-12-12T03:02:38.978Z,48.60
2018-12-12T03:05:07.593Z,48.50
2018-12-12T03:07:36.252Z,48.80
2018-12-12T03:10:04.967Z,48.80
2018-12-12T03:12:33.648Z,49.10
2018-12-12T03:15:02.330Z,49.10
2018-12-12T03:17:30.942Z,49.20
2018-12-12T03:19:59.609Z,49.00
2018-12-12T03:22:28.243Z,48.90
2018-12-12T03:24:56.879Z,49.40
2018-12-12T03:27:25.558Z,49.60
2018-12-12T03:29:54.254Z,49.40
2018-12-12T03:32:22.928Z,49.40
2018-12-12T03:34:51.533Z,49.20
2018-12-12T03:37:20.147Z,49.20
2018-12-12T03:39:48.755Z,49.20
2018-12-12T03:42:17.347Z,49.10
2018-12-12T03:44:46.024Z,49.30
2018-12-12T03:47:14.627Z,49.40
2018-12-12T03:49:43.582Z,49.40
2018-12-12T03:52:12.180Z,49.50
2018-12-12T03:54:40.815Z,49.50
2018-12-12T03:57:09.453Z,49.50
2018-12-12T03:59:38.054Z,49.60
2018-12-12T04:02:06.709Z,50.30
2018-12-12T04:04:35.369Z,49.70
2018-12-12T04:07:03.992Z,49.80
2018-12-12T04:09:32.654Z,50.00
2018-12-12T04:12:01.306Z,49.80
2018-12-12T04:14:29.897Z,49.80
2018-12-12T04:16:58.530Z,49.80
2018-12-12T04:19:27.209Z,50.30
2018-12-12T04:21:55.936Z,50.50
2018-12-12T04:24:26.612Z,50.10
2018-12-12T04:26:55.250Z,49.80
2018-12-12T04:29:23.866Z,49.60
2018-12-12T04:31:52.498Z,49.40
2018-12-12T04:34:21.143Z,49.30
2018-12-12T04:36:49.730Z,49.20
2018-12-12T04:39:18.385Z,49.20
2018-12-12T04:41:47.046Z,49.30
2018-12-12T04:44:15.640Z,49.40
2018-12-12T04:46:44.274Z,49.30
2018-12-12T04:49:12.920Z,49.40
2018-12-12T04:51:41.540Z,49.30
2018-12-12T04:54:10.158Z,49.20
2018-12-12T04:56:38.783Z,49.20
2018-12-12T04:59:07.546Z,49.30
2018-12-12T05:01:36.415Z,49.30
2018-12-12T05:04:05.046Z,49.30
2018-12-12T05:06:33.994Z,49.20
2018-12-12T05:09:02.937Z,49.30
2018-12-12T05:11:31.846Z,49.30
2018-12-12T05:14:00.803Z,49.20
2018-12-12T05:16:29.417Z,49.30
2018-12-12T05:18:58.049Z,49.30
2018-12-12T05:21:26.654Z,49.20
2018-12-12T05:23:55.288Z,49.50
2018-12-12T05:26:23.951Z,49.60
2018-12-12T05:28:52.559Z,49.60
2018-12-12T05:31:21.202Z,49.90
2018-12-12T05:33:49.863Z,49.90
2018-12-12T05:36:18.738Z,49.80
2018-12-12T05:38:47.369Z,49.90
2018-12-12T05:41:16.001Z,50.00
2018-12-12T05:43:44.614Z,49.90
2018-12-12T05:46:13.242Z,50.10
2018-12-12T05:48:41.911Z,49.90
2018-12-12T05:51:10.531Z,49.90
2018-12-12T05:53:39.157Z,49.80
2018-12-12T05:56:13.928Z,49.60
2018-12-12T05:58:38.561Z,49.80
2018-12-12T06:01:07.222Z,49.50
2018-12-12T06:03:35.843Z,49.40
2018-12-12T06:06:04.466Z,49.70
2018-12-12T06:08:33.099Z,49.20
2018-12-12T06:11:01.738Z,49.70
2018-12-12T06:13:30.357Z,50.20
2018-12-12T06:15:58.999Z,50.00
2018-12-12T06:18:27.785Z,49.60
2018-12-12T06:20:56.394Z,49.60
2018-12-12T06:23:25.004Z,49.70
2018-12-12T06:25:55.252Z,50.00
2018-12-12T06:28:24.014Z,50.30
2018-12-12T06:30:55.049Z,50.60
2018-12-12T06:33:23.680Z,49.80
2018-12-12T06:35:52.724Z,50.20
2018-12-12T06:38:21.469Z,50.40
2018-12-12T06:40:50.481Z,50.80
2018-12-12T06:43:19.343Z,50.90
2018-12-12T06:45:48.070Z,50.80
2018-12-12T06:48:16.724Z,50.80
2018-12-12T06:50:45.340Z,50.80
2018-12-12T06:53:13.969Z,50.70
2018-12-12T06:55:42.624Z,50.60
2018-12-12T06:58:11.241Z,50.50
2018-12-12T07:00:39.866Z,50.60
2018-12-12T07:03:08.533Z,50.50
2018-12-12T07:05:37.199Z,49.90
2018-12-12T07:08:05.884Z,50.40
2018-12-12T07:10:34.546Z,50.10
2018-12-12T07:13:03.193Z,49.90
2018-12-12T07:15:31.845Z,49.70
2018-12-12T07:18:00.458Z,49.60
2018-12-12T07:20:29.112Z,49.70
2018-12-12T07:22:57.810Z,49.40
2018-12-12T07:25:26.481Z,49.30
2018-12-12T07:27:55.111Z,49.20
2018-12-12T07:30:23.750Z,49.20
2018-12-12T07:32:52.410Z,49.50
2018-12-12T07:35:21.909Z,49.20
2018-12-12T07:37:50.610Z,49.10
2018-12-12T07:40:19.234Z,49.00
2018-12-12T07:42:47.876Z,49.40
2018-12-12T07:45:16.716Z,49.60
2018-12-12T07:47:45.442Z,49.60
2018-12-12T07:50:14.073Z,50.00
2018-12-12T07:52:42.737Z,50.20
2018-12-12T07:55:11.430Z,49.80
2018-12-12T07:57:40.070Z,49.50
2018-12-12T08:00:09.139Z,49.20
2018-12-12T08:02:37.793Z,49.40
2018-12-12T08:05:06.402Z,49.20
2018-12-12T08:07:35.009Z,49.10
2018-12-12T08:10:04.077Z,49.00
2018-12-12T08:12:33.706Z,48.90
2018-12-12T08:15:02.869Z,49.00
2018-12-12T08:17:31.977Z,48.70
2018-12-12T08:20:00.641Z,48.70
2018-12-12T08:22:29.290Z,49.00
2018-12-12T08:24:57.941Z,48.80
2018-12-12T08:27:26.581Z,49.30
2018-12-12T08:29:55.322Z,49.20
2018-12-12T08:32:23.942Z,49.20
2018-12-12T08:34:52.742Z,49.20
2018-12-12T08:37:21.397Z,49.10
2018-12-12T08:39:50.101Z,49.00
2018-12-12T08:42:18.722Z,50.00
2018-12-12T08:44:47.653Z,49.50
2018-12-12T08:47:16.297Z,48.70
2018-12-12T08:49:44.970Z,49.20
2018-12-12T08:52:15.434Z,49.20
2018-12-12T08:54:44.211Z,49.10
2018-12-12T08:57:12.990Z,49.20
2018-12-12T08:59:41.805Z,49.10
2018-12-12T09:02:10.416Z,49.10
2018-12-12T09:04:39.030Z,49.00
2018-12-12T09:07:07.642Z,49.00
2018-12-12T09:09:36.861Z,48.90
2018-12-12T09:12:05.710Z,48.70
2018-12-12T09:15:04.770Z,48.30
2018-12-12T09:17:33.506Z,48.70
2018-12-12T09:20:02.431Z,48.70
2018-12-12T09:22:31.113Z,48.70
2018-12-12T09:24:59.743Z,48.80
2018-12-12T09:27:28.485Z,49.40
2018-12-12T09:29:57.261Z,48.80
2018-12-12T09:32:26.534Z,48.80
2018-12-12T09:34:55.201Z,48.70
2018-12-12T09:37:23.811Z,48.70
2018-12-12T09:39:52.498Z,48.70
2018-12-12T09:42:21.133Z,48.60
2018-12-12T09:44:49.766Z,48.50
2018-12-12T09:47:18.541Z,48.40
2018-12-12T09:49:47.261Z,48.50
2018-12-12T09:52:16.113Z,48.50
2018-12-12T09:54:44.709Z,48.40
2018-12-12T09:57:13.351Z,48.30
2018-12-12T09:59:42.079Z,47.60
2018-12-12T10:02:10.678Z,48.10
2018-12-12T10:04:39.268Z,48.00
2018-12-12T10:07:07.874Z,47.90
2018-12-12T10:09:36.516Z,47.70
2018-12-12T10:12:05.169Z,47.80
2018-12-12T10:14:34.834Z,48.00
2018-12-12T10:17:03.929Z,48.20
2018-12-12T10:19:32.677Z,48.30
2018-12-12T10:22:01.660Z,48.60
2018-12-12T10:24:30.530Z,48.60
2018-12-12T10:26:59.171Z,48.60
2018-12-12T10:29:28.583Z,48.70
2018-12-12T10:31:57.197Z,48.70
2018-12-12T10:34:25.817Z,48.80
2018-12-12T10:36:54.461Z,49.60
2018-12-12T10:39:23.124Z,49.10
2018-12-12T10:41:51.839Z,49.10
2018-12-12T10:44:20.468Z,49.10
2018-12-12T10:46:49.062Z,49.10
2018-12-12T10:49:17.682Z,49.10
2018-12-12T10:51:46.438Z,49.10
2018-12-12T10:54:15.141Z,49.00
2018-12-12T10:56:43.756Z,48.90
2018-12-12T10:59:12.429Z,48.90
2018-12-12T11:01:47.383Z,49.00
2018-12-12T11:04:17.689Z,50.10
2018-12-12T11:06:46.315Z,50.00
2018-12-12T11:09:14.945Z,49.60
2018-12-12T11:11:45.620Z,49.30
2018-12-12T11:14:14.281Z,49.00
2018-12-12T11:16:42.952Z,48.90
2018-12-12T11:19:11.573Z,48.70
2018-12-12T11:21:40.277Z,48.60
2018-12-12T11:24:08.918Z,47.80
2018-12-12T11:26:37.527Z,48.40
2018-12-12T11:29:06.717Z,48.30
2018-12-12T11:31:35.356Z,48.30
2018-12-12T11:34:03.989Z,48.30
2018-12-12T11:36:33.694Z,48.20
2018-12-12T11:39:02.389Z,48.20
2018-12-12T11:41:31.209Z,48.10
2018-12-12T11:43:59.929Z,48.10
2018-12-12T11:46:28.563Z,48.10
2018-12-12T11:48:57.287Z,48.20
2018-12-12T11:51:25.938Z,48.20
2018-12-12T11:53:54.509Z,48.10
2018-12-12T11:56:23.280Z,48.30
2018-12-12T11:58:51.914Z,48.30
2018-12-12T12:01:23.174Z,48.30
2018-12-12T12:03:56.709Z,48.40
2018-12-12T12:06:22.710Z,47.70
2018-12-12T12:08:51.321Z,47.70
2018-12-12T12:11:20.374Z,47.60
2018-12-12T12:13:49.093Z,48.20
2018-12-12T12:16:17.761Z,48.10
2018-12-12T12:18:46.395Z,48.10
2018-12-12T12:21:15.138Z,48.10
2018-12-12T12:23:43.814Z,48.20
2018-12-12T12:26:14.651Z,48.20
2018-12-12T12:28:43.282Z,48.20
2018-12-12T12:31:11.916Z,48.10
2018-12-12T12:33:41.520Z,48.20
2018-12-12T12:36:10.303Z,48.20
2018-12-12T12:38:40.120Z,47.60
2018-12-12T12:41:08.822Z,48.10
2018-12-12T12:43:37.504Z,47.70
2018-12-12T12:46:06.513Z,47.70
2018-12-12T12:48:35.179Z,48.20
2018-12-12T12:51:03.846Z,48.20
2018-12-12T12:53:32.530Z,48.20
2018-12-12T12:56:01.202Z,48.20
2018-12-12T12:58:29.854Z,48.10
2018-12-12T13:00:58.649Z,48.10
2018-12-12T13:03:27.354Z,48.00
2018-12-12T13:05:56.069Z,47.80
2018-12-12T13:08:25.100Z,47.20
2018-12-12T13:10:54.082Z,47.20
2018-12-12T13:13:23.280Z,47.70
2018-12-12T13:15:52.472Z,47.00
2018-12-12T13:18:22.195Z,47.00
2018-12-12T13:20:51.319Z,46.80
2018-12-12T13:23:20.079Z,46.90
2018-12-12T13:25:49.228Z,47.50
2018-12-12T13:28:18.606Z,46.70
2018-12-12T13:30:47.765Z,46.80
2018-12-12T13:33:20.393Z,47.40
2018-12-12T13:35:49.477Z,47.30
2018-12-12T13:38:18.615Z,46.90
2018-12-12T13:40:47.363Z,46.90
2018-12-12T13:43:17.455Z,47.50
2018-12-12T13:45:46.570Z,48.90
2018-12-12T13:48:15.249Z,49.40
2018-12-12T13:50:43.884Z,48.80
2018-12-12T13:53:12.586Z,48.80
2018-12-12T13:55:42.140Z,48.30
2018-12-12T13:58:10.818Z,48.80
2018-12-12T14:00:39.473Z,48.40
2018-12-12T14:03:09.681Z,48.50
2018-12-12T14:05:38.379Z,49.00
2018-12-12T14:08:07.037Z,49.00
2018-12-12T14:10:35.686Z,48.80
2018-12-12T14:13:05.343Z,48.30
2018-12-12T14:15:34.515Z,48.30
2018-12-12T14:18:03.749Z,48.20
2018-12-12T14:20:33.292Z,48.70
2018-12-12T14:23:02.572Z,48.70
2018-12-12T14:25:31.248Z,48.80
2018-12-12T14:27:59.883Z,48.70
2018-12-12T14:30:28.517Z,48.20
2018-12-12T14:32:57.166Z,48.60
2018-12-12T14:35:27.689Z,48.40
2018-12-12T14:37:56.318Z,48.80
2018-12-12T14:40:24.967Z,48.10
2018-12-12T14:42:53.604Z,48.70
2018-12-12T14:45:22.218Z,48.70
2018-12-12T14:47:50.884Z,48.60
2018-12-12T14:50:19.529Z,47.80
2018-12-12T14:52:48.237Z,47.80
2018-12-12T14:55:17.698Z,47.70
2018-12-12T14:57:46.362Z,47.70
2018-12-12T15:00:15.207Z,48.20
2018-12-12T15:02:43.938Z,47.70
2018-12-12T15:05:13.098Z,47.70
2018-12-12T15:07:41.808Z,47.60
2018-12-12T15:10:10.514Z,47.60
2018-12-12T15:12:40.473Z,47.60
2018-12-12T15:15:09.118Z,48.10
2018-12-12T15:17:37.746Z,47.60
2018-12-12T15:20:06.430Z,47.60
2018-12-12T15:22:35.099Z,48.30
2018-12-12T15:25:03.789Z,47.80
2018-12-12T15:27:32.429Z,48.40
2018-12-12T15:30:01.061Z,47.90
2018-12-12T15:32:29.761Z,48.40
2018-12-12T15:34:58.406Z,47.80
2018-12-12T15:37:27.095Z,47.90
2018-12-12T15:39:55.749Z,47.80
2018-12-12T15:42:24.385Z,48.50
2018-12-12T15:44:53.039Z,48.40
2018-12-12T15:49:50.097Z,47.90
2018-12-12T15:52:18.757Z,48.90
2018-12-12T15:54:47.419Z,47.80
2018-12-12T15:57:16.066Z,47.80
2018-12-12T15:59:44.998Z,47.90
2018-12-12T16:02:13.689Z,48.00
2018-12-12T16:04:48.807Z,48.10
2018-12-12T16:07:13.107Z,48.10
2018-12-12T16:09:42.490Z,48.50
2018-12-12T16:12:11.141Z,47.90
2018-12-12T16:14:39.773Z,48.10
2018-12-12T16:17:08.445Z,48.30
2018-12-12T16:19:37.080Z,48.20
2018-12-12T16:22:05.786Z,48.20
2018-12-12T16:24:34.410Z,48.30
2018-12-12T16:27:03.089Z,48.20
2018-12-12T16:29:31.718Z,48.50
2018-12-12T16:32:00.325Z,48.40
2018-12-12T16:34:28.962Z,48.30
2018-12-12T16:36:57.569Z,48.20
2018-12-12T16:39:26.402Z,48.30
2018-12-12T16:41:55.517Z,48.30
2018-12-12T16:44:24.297Z,47.70
2018-12-12T16:46:53.229Z,48.30
2018-12-12T16:49:21.913Z,48.20
2018-12-12T16:51:50.649Z,48.20
2018-12-12T16:54:19.249Z,48.20
2018-12-12T16:56:47.916Z,48.20
2018-12-12T16:59:17.110Z,48.20
2018-12-12T17:01:45.733Z,48.20
2018-12-12T17:04:14.398Z,48.20
2018-12-12T17:06:42.990Z,48.20
2018-12-12T17:09:11.646Z,48.10
2018-12-12T17:11:40.249Z,48.10
2018-12-12T17:14:09.644Z,48.10
2018-12-12T17:16:38.242Z,48.20
2018-12-12T17:19:06.993Z,48.20
2018-12-12T17:21:35.619Z,48.30
2018-12-12T17:24:05.002Z,48.30
2018-12-12T17:26:34.565Z,48.90
2018-12-12T17:29:03.597Z,48.30
2018-12-12T17:31:32.314Z,48.30
2018-12-12T17:34:00.912Z,48.30
2018-12-12T17:36:29.522Z,48.30
2018-12-12T17:38:58.192Z,48.50
2018-12-12T17:41:26.868Z,48.30
2018-12-12T17:43:55.460Z,48.30
2018-12-12T17:46:24.096Z,48.30
2018-12-12T17:48:52.971Z,48.20
2018-12-12T17:51:21.621Z,48.30
2018-12-12T17:53:50.260Z,48.20
2018-12-12T17:56:18.846Z,48.20
2018-12-12T17:58:47.501Z,47.70
2018-12-12T18:01:16.171Z,48.20
2018-12-12T18:03:45.221Z,48.30
2018-12-12T18:06:13.847Z,48.30
2018-12-12T18:08:42.547Z,48.20
2018-12-12T18:11:11.237Z,48.20
2018-12-12T18:13:39.854Z,48.20
2018-12-12T18:16:08.483Z,48.50
2018-12-12T18:18:37.126Z,48.50
2018-12-12T18:21:05.800Z,48.60
2018-12-12T18:23:34.433Z,48.50
2018-12-12T18:26:03.063Z,48.50
2018-12-12T18:28:31.669Z,48.60
2018-12-12T18:31:00.593Z,48.70
2018-12-12T18:33:29.271Z,48.70
2018-12-12T18:35:57.886Z,48.90
2018-12-12T18:38:26.536Z,48.80
2018-12-12T18:40:55.195Z,48.80
2018-12-12T18:43:23.815Z,48.40
2018-12-12T18:45:52.454Z,49.00
2018-12-12T18:48:21.190Z,49.10
2018-12-12T18:50:50.342Z,49.00
2018-12-12T18:53:19.673Z,49.20
2018-12-12T18:55:48.630Z,49.80
2018-12-12T18:58:17.577Z,49.00
2018-12-12T19:00:46.241Z,49.20
2018-12-12T19:03:15.381Z,49.10
2018-12-12T19:05:44.207Z,49.30
2018-12-12T19:08:13.386Z,48.70
2018-12-12T19:10:42.275Z,49.20
2018-12-12T19:13:11.210Z,48.90
2018-12-12T19:15:39.909Z,49.00
2018-12-12T19:18:08.618Z,49.70
2018-12-12T19:20:37.322Z,49.00
2018-12-12T19:23:06.453Z,49.60
2018-12-12T19:25:35.816Z,49.40
2018-12-12T19:28:06.701Z,49.20
2018-12-12T19:30:36.599Z,49.10
2018-12-12T19:33:06.635Z,48.90
2018-12-12T19:35:35.983Z,48.80
2018-12-12T19:38:04.636Z,49.30
2018-12-12T19:40:33.289Z,49.00
2018-12-12T19:43:02.042Z,48.80
2018-12-12T19:45:32.498Z,48.70
2018-12-12T19:48:01.457Z,48.60
2018-12-12T19:50:30.875Z,49.20
2018-12-12T19:53:00.363Z,49.60
2018-12-12T19:55:30.034Z,49.40
2018-12-12T19:58:02.398Z,49.20
2018-12-12T20:00:31.111Z,48.60
2018-12-12T20:03:00.579Z,47.50
2018-12-12T20:05:29.859Z,49.30
2018-12-12T20:07:59.105Z,49.50
2018-12-12T20:10:30.378Z,49.50
2018-12-12T20:12:59.631Z,48.90
2018-12-12T20:15:33.754Z,49.40
2018-12-12T20:18:03.079Z,49.50
2018-12-12T20:20:31.970Z,49.60
2018-12-12T20:23:00.582Z,49.20
2018-12-12T20:34:33.737Z,49.30
2018-12-12T20:37:03.660Z,49.30
2018-12-12T20:39:32.345Z,49.80
2018-12-12T20:42:01.101Z,49.80
2018-12-12T20:44:29.832Z,49.90
2018-12-12T20:46:59.212Z,50.00
2018-12-12T20:49:28.594Z,50.00
2018-12-12T20:51:58.222Z,50.00
2018-12-12T20:54:27.746Z,50.00
2018-12-12T20:56:56.423Z,50.00
2018-12-12T20:59:25.068Z,49.40
2018-12-12T21:01:53.773Z,50.00
2018-12-12T21:04:22.389Z,49.60
2018-12-12T21:06:51.022Z,49.90
2018-12-12T21:09:19.698Z,50.10
2018-12-12T21:11:48.314Z,49.80
2018-12-12T21:14:16.992Z,49.60
2018-12-12T21:16:45.910Z,48.80
2018-12-12T21:19:14.833Z,49.30
2018-12-12T21:21:43.501Z,49.30
2018-12-12T21:24:12.152Z,49.20
2018-12-12T21:26:40.763Z,48.60
2018-12-12T21:29:09.407Z,49.00
2018-12-12T21:31:38.056Z,49.10
2018-12-12T21:34:06.714Z,48.60
2018-12-12T21:36:35.378Z,49.10
2018-12-12T21:39:05.214Z,49.30
2018-12-12T21:41:33.878Z,49.40
2018-12-12T21:44:02.549Z,49.40
2018-12-12T21:46:31.190Z,49.50
2018-12-12T21:48:59.850Z,48.90
2018-12-12T21:53:57.484Z,48.80
2018-12-12T21:56:26.130Z,49.50
2018-12-12T21:58:54.816Z,49.60
2018-12-12T22:01:24.693Z,49.70
2018-12-12T22:03:54.998Z,49.70
2018-12-12T22:06:23.748Z,49.70
2018-12-12T22:08:52.446Z,49.10
2018-12-12T22:11:21.135Z,49.70
2018-12-12T22:13:49.789Z,49.20
2018-12-12T22:16:21.375Z,49.80
2018-12-12T22:18:49.983Z,49.80
2018-12-12T22:21:18.620Z,49.80
2018-12-12T22:23:47.465Z,49.90
2018-12-12T22:26:16.765Z,50.00
2018-12-12T22:28:46.421Z,50.00
2018-12-12T22:31:15.312Z,50.00
2018-12-12T22:33:47.098Z,50.10
2018-12-12T22:36:16.707Z,50.00
2018-12-12T22:38:46.076Z,50.00
2018-12-12T22:41:16.427Z,49.50
2018-12-12T22:43:45.216Z,50.10
2018-12-12T22:46:15.697Z,50.00
2018-12-12T22:48:44.869Z,50.00
2018-12-12T22:51:14.211Z,50.10
2018-12-12T22:53:43.199Z,50.10
2018-12-12T22:56:12.753Z,50.00
2018-12-12T22:58:41.582Z,50.10
2018-12-12T23:01:10.627Z,50.00
2018-12-12T23:03:42.350Z,50.00
2018-12-12T23:06:11.162Z,50.00
2018-12-12T23:08:40.477Z,50.00
2018-12-12T23:11:10.822Z,49.90
2018-12-12T23:13:39.634Z,50.00
2018-12-12T23:16:08.369Z,50.00
2018-12-12T23:18:40.386Z,49.90
2018-12-12T23:21:11.923Z,49.90
2018-12-12T23:23:41.227Z,49.90
2018-12-12T23:26:10.995Z,49.90
2018-12-12T23:28:39.742Z,49.90
2018-12-12T23:31:08.811Z,49.80
2018-12-12T23:33:37.670Z,49.20
2018-12-12T23:36:10.730Z,49.80
2018-12-12T23:38:41.276Z,49.70
2018-12-12T23:41:11.026Z,49.80
2018-12-12T23:43:40.060Z,49.30
2018-12-12T23:46:11.209Z,49.80
2018-12-12T23:48:41.197Z,49.90
2018-12-12T23:51:09.927Z,50.00
2018-12-12T23:53:39.311Z,49.90
2018-12-12T23:56:09.277Z,49.90
2018-12-12T23:58:40.141Z,50.00
